Time;durP1;ratioP1;P1;durP2;ratioP2;P2;SDS_P1;SDS_P2;PMS_P1;PMS_P2;Temp;Humidity;BMP_temperature;BMP_pressure;BME280_temperature;BME280_humidity;BME280_pressure;Samples;Min_cycle;Max_cycle;Signal;HPM_P1;HPM_P2
2023/09/29 00:00:34;;;;;;;24.10;5.82;;;;;;;14.93;100.00;101438.31;4944695;28;20187;-45
2023/09/29 00:02:59;;;;;;;18.55;5.65;;;;;;;14.93;100.00;101441.00;4942582;28;20738;-46
2023/09/29 00:05:27;;;;;;;23.42;6.10;;;;;;;14.97;100.00;101437.22;4944692;28;20270;-46
2023/09/29 00:07:55;;;;;;;17.92;5.75;;;;;;;14.96;100.00;101439.06;4945266;28;20219;-45
2023/09/29 00:10:21;;;;;;;18.73;5.80;;;;;;;14.98;100.00;101447.09;4947298;28;20274;-45
2023/09/29 00:12:48;;;;;;;14.02;5.47;;;;;;;15.01;100.00;101445.09;4945412;28;20215;-46
2023/09/29 00:15:15;;;;;;;18.17;5.55;;;;;;;15.02;100.00;101454.97;4943393;28;20218;-45
2023/09/29 00:17:41;;;;;;;18.80;5.38;;;;;;;15.07;100.00;101456.59;4951470;28;20240;-45
2023/09/29 00:20:26;;;;;;;19.13;5.90;;;;;;;15.11;100.00;101467.16;4945765;28;20187;-46
2023/09/29 00:22:53;;;;;;;16.00;5.53;;;;;;;15.11;100.00;101466.25;4945640;28;20703;-46
2023/09/29 00:25:19;;;;;;;15.82;4.95;;;;;;;15.13;100.00;101456.25;4944333;28;20557;-46
2023/09/29 00:27:45;;;;;;;15.63;5.50;;;;;;;15.11;100.00;101464.47;4944708;28;20251;-45
2023/09/29 00:30:14;;;;;;;22.95;6.15;;;;;;;15.11;100.00;101458.16;4949773;28;20183;-46
2023/09/29 00:32:48;;;;;;;20.13;6.18;;;;;;;15.13;100.00;101465.25;4960986;28;20693;-45
2023/09/29 00:35:23;;;;;;;17.63;6.15;;;;;;;15.17;100.00;101456.03;4942501;28;20186;-46
2023/09/29 00:37:53;;;;;;;16.50;5.35;;;;;;;15.20;100.00;101455.91;4949374;28;20183;-46
2023/09/29 00:40:19;;;;;;;15.82;6.18;;;;;;;15.23;100.00;101454.88;4946153;28;20238;-47
2023/09/29 00:42:46;;;;;;;16.77;5.57;;;;;;;15.24;100.00;101441.31;4950224;28;20587;-45
2023/09/29 00:45:16;;;;;;;13.35;5.15;;;;;;;15.33;100.00;101452.66;4946585;28;20206;-46
2023/09/29 00:47:43;;;;;;;17.17;5.55;;;;;;;15.38;100.00;101439.78;4944930;28;20214;-46
2023/09/29 00:50:10;;;;;;;15.90;5.57;;;;;;;15.43;100.00;101443.13;4946084;28;20262;-45
2023/09/29 00:52:40;;;;;;;13.38;5.55;;;;;;;15.57;100.00;101440.63;4949086;28;20214;-46
2023/09/29 00:55:11;;;;;;;14.48;5.65;;;;;;;15.63;100.00;101443.03;4948474;28;20206;-46
2023/09/29 00:57:40;;;;;;;13.52;5.80;;;;;;;15.70;100.00;101435.50;4945040;28;20584;-45
2023/09/29 01:00:41;;;;;;;13.68;5.78;;;;;;;15.78;100.00;101433.31;4943077;28;20182;-45
2023/09/29 01:03:05;;;;;;;17.80;5.40;;;;;;;15.80;100.00;101431.41;4949968;28;20293;-46
2023/09/29 01:05:44;;;;;;;16.67;5.30;;;;;;;15.84;100.00;101437.53;4946900;28;20216;-45
2023/09/29 01:08:12;;;;;;;12.23;5.07;;;;;;;15.91;100.00;101438.09;4946334;28;20696;-45
2023/09/29 01:10:39;;;;;;;16.58;5.47;;;;;;;15.93;100.00;101434.34;4939746;28;20179;-44
2023/09/29 01:13:05;;;;;;;21.75;5.18;;;;;;;15.96;100.00;101433.31;4944691;28;20214;-45
2023/09/29 01:15:34;;;;;;;15.10;5.18;;;;;;;16.01;100.00;101429.44;4946880;28;20190;-46
2023/09/29 01:18:01;;;;;;;12.00;4.95;;;;;;;16.06;100.00;101424.66;4941083;28;20658;-44
2023/09/29 01:20:28;;;;;;;16.25;5.75;;;;;;;16.01;100.00;101410.53;4946527;28;20214;-45
2023/09/29 01:22:56;;;;;;;15.43;5.35;;;;;;;16.01;100.00;101418.63;4957772;28;20213;-45
2023/09/29 01:25:22;;;;;;;11.07;5.30;;;;;;;16.01;100.00;101417.75;4945039;28;20197;-45
2023/09/29 01:27:48;;;;;;;15.52;6.03;;;;;;;16.01;100.00;101417.75;4942688;28;20307;-44
2023/09/29 01:30:16;;;;;;;17.65;6.05;;;;;;;15.97;100.00;101430.56;4949540;28;20841;-45
2023/09/29 01:32:43;;;;;;;17.40;5.63;;;;;;;15.96;100.00;101418.00;4941778;28;20201;-44
2023/09/29 01:35:14;;;;;;;16.83;5.22;;;;;;;15.97;100.00;101424.28;4949016;28;20218;-46
2023/09/29 01:37:42;;;;;;;13.43;5.55;;;;;;;15.93;100.00;101418.16;4945027;28;20183;-45
2023/09/29 01:40:09;;;;;;;14.10;5.63;;;;;;;15.94;100.00;101421.72;4949511;28;20179;-45
2023/09/29 01:42:35;;;;;;;13.23;5.18;;;;;;;15.94;100.00;101414.50;4940014;28;20241;-45
2023/09/29 01:45:03;;;;;;;15.68;5.80;;;;;;;15.93;100.00;101423.56;4945475;28;20527;-47
2023/09/29 01:47:28;;;;;;;16.20;5.07;;;;;;;15.93;100.00;101420.84;4941804;28;20626;-45
2023/09/29 01:49:54;;;;;;;18.45;6.07;;;;;;;15.93;100.00;101419.97;4944357;28;20807;-46
2023/09/29 01:52:22;;;;;;;15.00;5.35;;;;;;;15.93;100.00;101410.03;4942757;28;20222;-45
2023/09/29 01:54:49;;;;;;;14.02;4.90;;;;;;;15.93;100.00;101425.38;4948434;28;20178;-44
2023/09/29 01:57:15;;;;;;;13.50;5.32;;;;;;;15.94;100.00;101421.72;4949051;28;20203;-44
2023/09/29 01:59:41;;;;;;;13.35;4.65;;;;;;;15.95;100.00;101421.63;4959772;28;20176;-43
2023/09/29 02:02:06;;;;;;;17.02;5.40;;;;;;;15.94;100.00;101405.50;4945558;28;20672;-46
2023/09/29 02:04:32;;;;;;;13.65;5.05;;;;;;;15.91;100.00;101408.38;4947761;28;20275;-46
2023/09/29 02:06:57;;;;;;;12.75;4.63;;;;;;;15.98;100.00;101412.50;4963578;28;20257;-47
2023/09/29 02:09:23;;;;;;;13.50;5.68;;;;;;;15.93;100.00;101406.47;4947580;28;20634;-46
2023/09/29 02:11:49;;;;;;;14.20;5.13;;;;;;;15.90;100.00;101404.81;4945263;28;20206;-45
2023/09/29 02:14:15;;;;;;;11.85;4.85;;;;;;;15.87;100.00;101396.84;4949321;28;20189;-45
2023/09/29 02:16:41;;;;;;;11.45;5.00;;;;;;;15.88;100.00;101400.44;4946589;28;20212;-44
2023/09/29 02:19:07;;;;;;;11.18;4.88;;;;;;;15.88;100.00;101395.91;4959314;28;20182;-46
2023/09/29 02:21:33;;;;;;;13.52;4.72;;;;;;;15.91;100.00;101390.31;4945133;28;20171;-46
2023/09/29 02:23:59;;;;;;;16.60;4.72;;;;;;;15.89;100.00;101394.06;4945876;28;20523;-48
2023/09/29 02:26:28;;;;;;;12.80;4.60;;;;;;;15.90;100.00;101390.41;4959117;28;20673;-45
2023/09/29 02:28:54;;;;;;;15.05;5.70;;;;;;;15.89;100.00;101389.53;4947170;28;20190;-44
2023/09/29 02:31:19;;;;;;;13.23;4.60;;;;;;;15.82;100.00;101388.09;4947930;28;20170;-46
2023/09/29 02:33:45;;;;;;;14.77;5.03;;;;;;;15.80;100.00;101392.69;4944732;28;20203;-45
2023/09/29 02:36:10;;;;;;;13.25;4.50;;;;;;;15.78;100.00;101389.19;4944877;28;20178;-45
2023/09/29 02:38:36;;;;;;;12.07;4.85;;;;;;;15.82;100.00;101377.28;4942618;28;20191;-45
2023/09/29 02:41:02;;;;;;;17.20;5.72;;;;;;;15.77;100.00;101377.53;4946917;28;20171;-47
2023/09/29 02:43:30;;;;;;;11.63;4.95;;;;;;;15.71;100.00;101368.84;4943174;28;20261;-45
2023/09/29 02:45:58;;;;;;;12.02;4.43;;;;;;;15.69;100.00;101362.63;4947442;28;20594;-44
2023/09/29 02:48:24;;;;;;;12.70;4.15;;;;;;;15.69;100.00;101371.59;4958615;28;20207;-45
2023/09/29 02:50:50;;;;;;;15.88;5.35;;;;;;;15.66;100.00;101369.06;4946617;28;20258;-45
2023/09/29 02:53:16;;;;;;;12.50;4.55;;;;;;;15.66;100.00;101367.25;4945251;28;20204;-46
2023/09/29 02:55:44;;;;;;;14.52;5.55;;;;;;;15.62;100.00;101362.06;4945983;28;20209;-47
2023/09/29 02:58:09;;;;;;;14.43;5.05;;;;;;;15.62;100.00;101375.56;4945853;28;20178;-45
2023/09/29 03:00:35;;;;;;;16.42;4.90;;;;;;;15.62;100.00;101381.84;4956034;28;20191;-46
2023/09/29 03:03:02;;;;;;;21.27;5.60;;;;;;;15.63;100.00;101370.09;4949480;28;20218;-47
2023/09/29 03:05:28;;;;;;;12.27;5.05;;;;;;;15.62;100.00;101375.56;4940631;28;20171;-45
2023/09/29 03:07:55;;;;;;;15.95;5.22;;;;;;;15.62;100.00;101362.06;4944282;28;20205;-45
2023/09/29 03:10:25;;;;;;;11.02;5.05;;;;;;;15.64;100.00;101366.44;4960583;28;20234;-44
2023/09/29 03:12:51;;;;;;;16.13;5.30;;;;;;;15.62;100.00;101362.94;4944619;28;20207;-45
2023/09/29 03:15:17;;;;;;;19.42;5.13;;;;;;;15.62;100.00;101354.84;4947685;28;20252;-45
2023/09/29 03:17:46;;;;;;;9.50;4.28;;;;;;;15.60;100.00;101350.47;4942228;28;20590;-46
2023/09/29 03:20:12;;;;;;;11.38;4.90;;;;;;;15.60;100.00;101350.47;4947754;28;20185;-45
2023/09/29 03:22:43;;;;;;;11.65;5.10;;;;;;;15.64;100.00;101347.53;4943291;28;20639;-46
2023/09/29 03:25:09;;;;;;;15.90;5.13;;;;;;;15.60;100.00;101354.03;4944773;28;20179;-45
2023/09/29 03:27:36;;;;;;;13.35;4.85;;;;;;;15.64;100.00;101339.44;4947656;28;20195;-45
2023/09/29 03:30:04;;;;;;;11.95;4.55;;;;;;;15.67;100.00;101341.09;4960120;28;20187;-45
2023/09/29 03:32:30;;;;;;;10.85;5.05;;;;;;;15.68;100.00;101350.97;4944395;28;20253;-45
2023/09/29 03:34:55;;;;;;;11.27;4.97;;;;;;;15.64;100.00;101349.38;4944526;28;20195;-46
2023/09/29 03:37:22;;;;;;;13.68;4.97;;;;;;;15.61;100.00;101353.09;4944534;28;20257;-46
2023/09/29 03:39:48;;;;;;;12.15;4.70;;;;;;;15.57;100.00;101356.03;4943222;28;20205;-46
2023/09/29 03:42:16;;;;;;;12.25;4.75;;;;;;;15.61;100.00;101347.69;4946301;28;20238;-46
2023/09/29 03:44:45;;;;;;;10.82;4.82;;;;;;;15.62;100.00;101351.28;4945680;28;20646;-45
2023/09/29 03:47:12;;;;;;;13.07;4.70;;;;;;;15.61;100.00;101354.91;4947312;28;20314;-46
2023/09/29 03:49:38;;;;;;;12.00;4.80;;;;;;;15.60;100.00;101350.47;4945258;28;20256;-48
2023/09/29 03:52:07;;;;;;;9.23;4.88;;;;;;;15.58;100.00;101350.53;4945206;28;20209;-45
2023/09/29 03:54:33;;;;;;;16.30;5.28;;;;;;;15.53;100.00;101343.63;4959324;28;20194;-45
2023/09/29 03:57:01;;;;;;;12.38;5.20;;;;;;;15.51;100.00;101346.41;4948560;28;20183;-44
2023/09/29 03:59:26;;;;;;;12.65;5.07;;;;;;;15.52;100.00;101342.75;4946108;28;20222;-45
2023/09/29 04:01:52;;;;;;;11.88;5.65;;;;;;;15.52;100.00;101344.56;4945856;28;20202;-45
2023/09/29 04:04:18;;;;;;;11.30;5.15;;;;;;;15.48;100.00;101345.69;4942874;28;20190;-45
2023/09/29 04:06:43;;;;;;;11.23;4.97;;;;;;;15.46;100.00;101337.69;4943657;28;20237;-44
2023/09/29 04:09:09;;;;;;;11.80;5.35;;;;;;;15.43;100.00;101335.97;4946025;28;20685;-46
2023/09/29 04:11:34;;;;;;;12.90;4.78;;;;;;;15.45;100.00;101330.50;4945091;28;20202;-45
2023/09/29 04:13:59;;;;;;;10.80;4.82;;;;;;;15.35;100.00;101327.41;4945269;28;20179;-45
2023/09/29 04:16:25;;;;;;;15.00;4.97;;;;;;;15.33;100.00;101333.84;4945222;28;20224;-47
2023/09/29 04:18:50;;;;;;;9.38;4.65;;;;;;;15.25;100.00;101332.38;4943686;28;20210;-48
2023/09/29 04:21:16;;;;;;;12.77;5.18;;;;;;;15.17;100.00;101339.09;4944690;28;20232;-48
2023/09/29 04:23:42;;;;;;;12.35;4.57;;;;;;;15.11;100.00;101332.22;4945843;28;20210;-46
2023/09/29 04:26:22;;;;;;;10.10;4.88;;;;;;;15.16;100.00;101326.56;4948560;28;20834;-47
2023/09/29 04:28:48;;;;;;;11.20;5.72;;;;;;;15.17;100.00;101328.31;4944453;28;20730;-47
2023/09/29 04:31:13;;;;;;;10.68;4.55;;;;;;;15.16;100.00;101326.56;4946414;28;20250;-48
2023/09/29 04:33:40;;;;;;;13.43;5.80;;;;;;;15.07;100.00;101327.91;4944162;28;20302;-48
2023/09/29 04:36:06;;;;;;;11.40;4.95;;;;;;;15.10;100.00;101330.44;4946915;28;20293;-46
2023/09/29 04:38:32;;;;;;;13.32;6.93;;;;;;;15.08;100.00;101315.28;4946496;28;20238;-46
2023/09/29 04:40:58;;;;;;;15.57;6.70;;;;;;;15.10;100.00;101318.78;4944437;28;20175;-48
2023/09/29 04:43:23;;;;;;;14.35;6.70;;;;;;;15.12;100.00;101303.38;4948970;28;20252;-47
2023/09/29 04:45:49;;;;;;;12.23;5.70;;;;;;;15.09;100.00;101315.22;4947250;28;20190;-46
2023/09/29 04:48:14;;;;;;;14.60;6.32;;;;;;;15.08;100.00;101312.59;4943420;28;20249;-47
2023/09/29 04:50:40;;;;;;;13.43;5.50;;;;;;;15.08;100.00;101315.28;4942713;28;20626;-47
2023/09/29 04:53:06;;;;;;;16.20;6.70;;;;;;;15.06;100.00;101309.94;4947220;28;20218;-47
2023/09/29 04:55:31;;;;;;;13.70;7.03;;;;;;;15.07;100.00;101305.44;4947377;28;20193;-46
2023/09/29 04:57:57;;;;;;;11.32;5.93;;;;;;;15.11;100.00;101309.72;4944506;28;20590;-49
2023/09/29 05:00:22;;;;;;;16.35;6.68;;;;;;;15.10;100.00;101307.97;4944935;28;20228;-47
2023/09/29 05:02:48;;;;;;;11.93;6.60;;;;;;;15.11;100.00;101301.63;4941884;28;20386;-49
2023/09/29 05:05:13;;;;;;;15.98;7.22;;;;;;;15.06;100.00;101300.97;4947825;28;20503;-48
2023/09/29 05:07:39;;;;;;;17.85;7.28;;;;;;;15.02;100.00;101305.66;4948514;28;20194;-47
2023/09/29 05:10:06;;;;;;;14.90;7.03;;;;;;;15.02;100.00;101302.94;4947521;28;20750;-46
2023/09/29 05:12:33;;;;;;;14.50;6.30;;;;;;;15.01;100.00;101306.59;4941339;28;20415;-47
2023/09/29 05:14:58;;;;;;;13.23;6.40;;;;;;;15.09;100.00;101298.16;4948205;28;20641;-46
2023/09/29 05:17:23;;;;;;;13.23;7.25;;;;;;;15.04;100.00;101295.66;4938448;28;20287;-47
2023/09/29 05:19:49;;;;;;;12.52;7.80;;;;;;;15.03;100.00;101300.19;4945426;28;20182;-49
2023/09/29 05:22:14;;;;;;;17.38;8.80;;;;;;;15.07;100.00;101291.97;4943743;28;20595;-47
2023/09/29 05:24:40;;;;;;;18.75;9.82;;;;;;;15.10;100.00;101283.69;4939529;28;20654;-46
2023/09/29 05:27:05;;;;;;;20.38;7.88;;;;;;;15.13;100.00;101279.03;4946628;28;20692;-47
2023/09/29 05:29:31;;;;;;;16.70;9.10;;;;;;;15.13;100.00;101284.44;4946195;28;20210;-48
2023/09/29 05:31:56;;;;;;;16.48;8.52;;;;;;;15.14;100.00;101282.59;4942372;28;20214;-47
2023/09/29 05:34:22;;;;;;;16.10;10.40;;;;;;;15.19;100.00;101286.78;4942178;28;20188;-47
2023/09/29 05:36:47;;;;;;;16.73;10.18;;;;;;;15.28;100.00;101279.19;4943505;28;20303;-47
2023/09/29 05:39:14;;;;;;;12.90;9.02;;;;;;;15.31;100.00;101279.91;4941692;28;21437;-47
2023/09/29 05:41:40;;;;;;;15.07;9.10;;;;;;;15.31;100.00;101287.16;4941227;28;20186;-47
2023/09/29 05:44:06;;;;;;;23.25;9.73;;;;;;;15.32;100.00;101286.19;4943139;28;20203;-47
2023/09/29 05:46:31;;;;;;;18.88;10.30;;;;;;;15.37;100.00;101286.81;4940638;28;20315;-47
2023/09/29 05:48:56;;;;;;;14.57;8.82;;;;;;;15.38;100.00;101288.56;4942003;28;20174;-47
2023/09/29 05:51:22;;;;;;;17.27;10.10;;;;;;;15.40;100.00;101290.25;4941794;28;20190;-48
2023/09/29 05:53:47;;;;;;;15.93;9.60;;;;;;;15.42;100.00;101291.03;4955683;28;20199;-47
2023/09/29 05:56:13;;;;;;;14.27;9.15;;;;;;;15.45;100.00;101304.38;4940020;28;20642;-47
2023/09/29 05:58:39;;;;;;;13.20;9.00;;;;;;;15.47;100.00;101293.50;4939812;28;20246;-48
2023/09/29 06:01:13;;;;;;;14.43;9.23;;;;;;;15.45;100.00;101280.06;4941843;28;20575;-47
2023/09/29 06:03:40;;;;;;;14.90;8.63;;;;;;;15.50;100.00;101282.53;4941159;28;20193;-47
2023/09/29 06:06:07;;;;;;;17.67;9.90;;;;;;;15.51;100.00;101280.72;4945530;28;20194;-47
2023/09/29 06:08:33;;;;;;;14.32;10.00;;;;;;;15.52;100.00;101280.63;4937044;28;20203;-48
2023/09/29 06:10:58;;;;;;;15.32;10.30;;;;;;;15.53;100.00;101289.63;4940273;28;20205;-48
2023/09/29 06:13:24;;;;;;;14.30;9.68;;;;;;;15.54;100.00;101289.53;4940772;28;20226;-47
2023/09/29 06:15:49;;;;;;;12.05;9.05;;;;;;;15.61;100.00;101303.59;4943254;28;20733;-46
2023/09/29 06:18:15;;;;;;;14.93;10.75;;;;;;;15.60;100.00;101296.44;4953790;28;20349;-50
2023/09/29 06:20:41;;;;;;;15.90;9.43;;;;;;;15.61;100.00;101300.88;4943432;28;20194;-46
2023/09/29 06:23:07;;;;;;;12.45;9.23;;;;;;;15.62;100.00;101286.44;4938303;28;20230;-47
2023/09/29 06:25:33;;;;;;;15.73;9.95;;;;;;;15.63;100.00;101275.56;4940767;28;20216;-47
2023/09/29 06:27:59;;;;;;;16.88;9.48;;;;;;;15.66;100.00;101283.50;4941793;28;20277;-49
2023/09/29 06:30:24;;;;;;;14.57;9.32;;;;;;;15.69;100.00;101287.00;4939147;28;20183;-49
2023/09/29 06:32:50;;;;;;;13.25;9.70;;;;;;;15.71;100.00;101291.38;4941607;28;20210;-48
2023/09/29 06:35:16;;;;;;;16.70;10.55;;;;;;;15.68;100.00;101271.72;4943346;28;20296;-51
2023/09/29 06:37:42;;;;;;;14.95;10.77;;;;;;;15.72;100.00;101259.84;4944555;28;20167;-47
2023/09/29 06:40:11;;;;;;;12.55;10.52;;;;;;;15.72;100.00;101284.16;4945166;28;20278;-47
2023/09/29 06:42:37;;;;;;;15.18;10.50;;;;;;;15.77;100.00;101284.81;4945729;28;20211;-47
2023/09/29 06:45:04;;;;;;;14.15;10.68;;;;;;;15.80;100.00;101280.09;4947152;28;20191;-47
2023/09/29 06:47:30;;;;;;;14.48;10.75;;;;;;;15.82;100.00;101280.03;4945661;28;20203;-49
2023/09/29 06:49:55;;;;;;;13.48;10.20;;;;;;;15.87;100.00;101280.63;4948226;28;20175;-47
2023/09/29 06:52:21;;;;;;;13.05;10.00;;;;;;;15.92;100.00;101289.41;4940449;28;20207;-47
2023/09/29 06:54:46;;;;;;;13.52;8.88;;;;;;;15.94;100.00;101298.28;4948450;28;20594;-47
2023/09/29 06:57:12;;;;;;;18.95;10.23;;;;;;;15.92;100.00;101286.69;4945009;28;20184;-48
2023/09/29 06:59:37;;;;;;;12.68;9.98;;;;;;;15.95;100.00;101288.34;4944177;28;20183;-48
2023/09/29 07:02:03;;;;;;;14.75;10.25;;;;;;;15.92;100.00;101281.28;4948605;28;20206;-47
2023/09/29 07:04:28;;;;;;;17.80;10.27;;;;;;;15.90;100.00;101264.28;4945324;28;20192;-47
2023/09/29 07:06:54;;;;;;;12.20;10.27;;;;;;;15.97;100.00;101252.16;4947678;28;20210;-48
2023/09/29 07:09:19;;;;;;;15.38;11.20;;;;;;;15.91;100.00;101274.13;4951830;28;20198;-47
2023/09/29 07:11:45;;;;;;;15.63;10.98;;;;;;;15.95;100.00;101278.41;4943407;28;20208;-47
2023/09/29 07:14:10;;;;;;;12.18;10.50;;;;;;;15.98;100.00;101278.25;4945989;28;20229;-47
2023/09/29 07:16:36;;;;;;;15.82;11.10;;;;;;;15.98;100.00;101270.16;4947963;28;20191;-47
2023/09/29 07:19:01;;;;;;;16.98;10.90;;;;;;;15.97;100.00;101279.19;4947113;28;20274;-48
2023/09/29 07:21:27;;;;;;;12.70;9.35;;;;;;;16.05;100.00;101278.81;4943741;28;20339;-46
2023/09/29 07:23:52;;;;;;;15.75;10.60;;;;;;;16.05;100.00;101273.41;4944199;28;20186;-48
2023/09/29 07:26:18;;;;;;;12.13;9.80;;;;;;;16.11;100.00;101272.16;4944227;28;20189;-47
2023/09/29 07:28:44;;;;;;;13.77;9.85;;;;;;;16.09;100.00;101265.97;4958480;28;20578;-48
2023/09/29 07:31:10;;;;;;;14.93;10.10;;;;;;;16.13;100.00;101275.66;4943359;28;20269;-48
2023/09/29 07:33:35;;;;;;;15.77;10.65;;;;;;;16.12;100.00;101268.53;4949321;28;20326;-47
2023/09/29 07:36:01;;;;;;;12.77;10.20;;;;;;;16.12;100.00;101269.41;4947929;28;20192;-47
2023/09/29 07:38:26;;;;;;;13.02;10.38;;;;;;;16.14;100.00;101264.78;4945243;28;20547;-47
2023/09/29 07:40:52;;;;;;;15.15;10.52;;;;;;;16.12;100.00;101268.53;4944136;28;20261;-47
2023/09/29 07:43:17;;;;;;;13.32;10.18;;;;;;;16.14;100.00;101261.22;4945798;28;20290;-46
2023/09/29 07:45:42;;;;;;;12.65;10.15;;;;;;;16.17;100.00;101256.50;4947683;28;20179;-46
2023/09/29 07:48:08;;;;;;;13.07;10.55;;;;;;;16.21;100.00;101257.22;4945400;28;20218;-47
2023/09/29 07:50:34;;;;;;;11.93;10.13;;;;;;;16.24;100.00;101271.41;4944433;28;20202;-47
2023/09/29 07:53:00;;;;;;;15.00;10.85;;;;;;;16.27;100.00;101275.81;4945266;28;20206;-46
2023/09/29 07:55:25;;;;;;;16.85;11.18;;;;;;;16.34;100.00;101270.94;4947025;28;20539;-46
2023/09/29 07:57:52;;;;;;;17.70;11.32;;;;;;;16.36;100.00;101278.00;4945563;28;20269;-48
2023/09/29 08:00:17;;;;;;;15.68;11.40;;;;;;;16.40;100.00;101286.81;4949321;28;20182;-48
2023/09/29 08:02:43;;;;;;;13.27;10.80;;;;;;;16.44;100.00;101282.97;4939386;28;20840;-47
2023/09/29 08:05:12;;;;;;;14.60;11.48;;;;;;;16.47;100.00;101280.97;4949651;28;20223;-47
2023/09/29 08:07:41;;;;;;;14.50;12.13;;;;;;;16.49;100.00;101283.59;4947813;28;20687;-48
2023/09/29 08:10:07;;;;;;;12.82;11.52;;;;;;;16.46;100.00;101281.03;4950733;28;20178;-48
2023/09/29 08:12:33;;;;;;;16.88;12.48;;;;;;;16.45;100.00;101279.31;4944613;28;20578;-47
2023/09/29 08:14:59;;;;;;;16.30;12.25;;;;;;;16.48;100.00;101265.59;4951377;28;20178;-47
2023/09/29 08:17:26;;;;;;;15.70;12.52;;;;;;;16.48;100.00;101266.47;4946674;28;20190;-47
2023/09/29 08:19:51;;;;;;;14.75;11.57;;;;;;;16.54;100.00;101277.94;4946077;28;20175;-47
2023/09/29 08:22:17;;;;;;;14.73;13.23;;;;;;;16.53;100.00;101281.56;4946522;28;20590;-46
2023/09/29 08:24:42;;;;;;;15.68;13.32;;;;;;;16.54;100.00;101277.94;4943167;28;20174;-48
2023/09/29 08:27:08;;;;;;;19.02;12.18;;;;;;;16.55;100.00;101269.72;4942865;28;20198;-47
2023/09/29 08:29:33;;;;;;;13.40;11.75;;;;;;;16.57;100.00;101283.16;4945454;28;20261;-48
2023/09/29 08:32:00;;;;;;;18.80;13.40;;;;;;;16.55;100.00;101282.38;4944204;28;20700;-47
2023/09/29 08:34:28;;;;;;;14.32;12.80;;;;;;;16.59;100.00;101270.41;4947678;28;20191;-48
2023/09/29 08:36:54;;;;;;;16.50;11.55;;;;;;;16.64;100.00;101261.09;4946704;28;20266;-48
2023/09/29 08:39:20;;;;;;;21.45;13.20;;;;;;;16.72;100.00;101266.06;4942317;28;20629;-48
2023/09/29 08:42:00;;;;;;;14.13;11.98;;;;;;;16.79;100.00;101275.59;4946350;28;20305;-47
2023/09/29 08:44:27;;;;;;;14.73;12.95;;;;;;;16.84;100.00;101270.81;4944591;28;20269;-47
2023/09/29 08:46:56;;;;;;;15.95;12.88;;;;;;;16.91;100.00;101273.16;4946252;28;20704;-48
2023/09/29 08:49:22;;;;;;;15.57;12.40;;;;;;;16.96;100.00;101285.44;4947840;28;20194;-48
2023/09/29 08:51:49;;;;;;;17.33;13.13;;;;;;;16.94;100.00;101270.25;4943136;28;20215;-47
2023/09/29 08:54:15;;;;;;;19.05;12.13;;;;;;;16.95;100.00;101280.16;4947797;28;20322;-47
2023/09/29 08:56:40;;;;;;;15.18;11.90;;;;;;;16.99;100.00;101292.50;4946263;28;20183;-47
2023/09/29 08:59:06;;;;;;;13.82;11.85;;;;;;;17.02;100.00;101279.69;4946330;28;20183;-47
2023/09/29 09:01:32;;;;;;;16.42;12.48;;;;;;;17.05;100.00;101278.63;4944011;28;20305;-49
2023/09/29 09:03:58;;;;;;;18.20;13.40;;;;;;;17.09;100.00;101280.19;4943971;28;20195;-48
2023/09/29 09:06:25;;;;;;;13.13;11.25;;;;;;;17.11;100.00;101283.69;4942496;28;20226;-48
2023/09/29 09:08:52;;;;;;;15.77;12.02;;;;;;;17.08;100.00;101282.03;4944103;28;20258;-47
2023/09/29 09:11:18;;;;;;;12.90;11.60;;;;;;;17.12;100.00;101287.28;4945813;28;20603;-47
2023/09/29 09:13:58;;;;;;;16.40;11.57;;;;;;;17.11;100.00;101274.72;4944155;28;20250;-48
2023/09/29 09:16:26;;;;;;;17.40;12.45;;;;;;;17.14;100.00;101275.38;4946793;28;20204;-48
2023/09/29 09:18:51;;;;;;;20.17;12.63;;;;;;;17.25;100.00;101291.91;4940166;28;20655;-48
2023/09/29 09:21:17;;;;;;;17.30;12.38;;;;;;;17.37;100.00;101289.41;4944739;28;20322;-49
2023/09/29 09:23:42;;;;;;;18.40;12.35;;;;;;;17.44;100.00;101285.38;4942201;28;20250;-47
2023/09/29 09:26:16;;;;;;;16.77;12.10;;;;;;;17.48;100.00;101286.94;4949304;28;20230;-48
2023/09/29 09:28:42;;;;;;;16.77;12.50;;;;;;;17.50;100.00;101279.59;4940455;28;20255;-48
2023/09/29 09:31:08;;;;;;;15.65;11.38;;;;;;;17.53;100.00;101276.69;4945650;28;20198;-46
2023/09/29 09:33:34;;;;;;;12.73;10.82;;;;;;;17.53;100.00;101271.28;4944445;28;20221;-48
2023/09/29 09:36:09;;;;;;;18.00;11.07;;;;;;;17.55;100.00;101263.94;4948057;28;20270;-47
2023/09/29 09:38:36;;;;;;;13.93;10.32;;;;;;;17.61;100.00;101257.28;4939348;28;20190;-47
2023/09/29 09:41:02;;;;;;;13.98;10.73;;;;;;;17.70;100.00;101249.44;4943672;28;20186;-48
2023/09/29 09:43:29;;;;;;;14.23;9.90;;;;;;;17.92;100.00;101242.72;4943218;28;20261;-47
2023/09/29 09:46:03;;;;;;;15.15;8.80;;;;;;;18.04;100.00;101249.25;4945601;28;20300;-47
2023/09/29 09:48:55;;;;;;;19.38;9.13;;;;;;;18.06;100.00;101248.16;4940908;28;20242;-47
2023/09/29 09:51:42;;;;;;;14.70;9.25;;;;;;;18.10;100.00;101251.53;4943698;28;20205;-47
2023/09/29 09:54:10;;;;;;;13.25;8.18;;;;;;;18.14;100.00;101253.09;4942404;28;20406;-48
2023/09/29 09:56:50;;;;;;;10.77;7.50;;;;;;;18.56;100.00;101245.00;4940890;28;20199;-46
2023/09/29 09:59:16;;;;;;;13.30;7.50;;;;;;;18.56;100.00;101245.88;4944558;28;20216;-48
2023/09/29 10:01:43;;;;;;;14.20;9.18;;;;;;;18.62;100.00;101244.63;4946646;28;20734;-47
2023/09/29 10:04:12;;;;;;;12.95;7.82;;;;;;;18.48;100.00;101238.25;4943810;28;20198;-48
2023/09/29 10:06:39;;;;;;;11.73;8.00;;;;;;;18.35;100.00;101241.84;4944989;28;20594;-47
2023/09/29 10:09:10;;;;;;;14.75;8.07;;;;;;;18.13;100.00;101235.09;4947672;28;20652;-48
2023/09/29 10:11:35;;;;;;;13.23;7.78;;;;;;;17.96;100.00;101224.44;4948189;28;20203;-48
2023/09/29 10:14:06;;;;;;;13.40;8.93;;;;;;;17.86;100.00;101229.53;4945353;28;20253;-46
2023/09/29 10:16:31;;;;;;;11.90;8.02;;;;;;;18.01;100.00;101215.03;4948249;28;20209;-48
2023/09/29 10:19:05;;;;;;;14.05;8.20;;;;;;;17.97;100.00;101212.63;4949088;28;20199;-48
2023/09/29 10:21:45;;;;;;;13.18;7.97;;;;;;;18.19;100.00;101215.72;4943312;28;20214;-47
2023/09/29 10:24:26;;;;;;;12.73;8.38;;;;;;;18.21;100.00;101204.75;4944427;28;20195;-47
2023/09/29 10:26:52;;;;;;;13.60;8.35;;;;;;;18.25;100.00;101195.44;4944885;28;20229;-48
2023/09/29 10:29:19;;;;;;;10.25;7.53;;;;;;;18.37;100.00;101197.38;4942922;28;20297;-48
2023/09/29 10:31:45;;;;;;;14.70;7.22;;;;;;;18.37;100.00;101200.09;4945133;28;20302;-47
2023/09/29 10:34:24;;;;;;;9.93;7.00;;;;;;;18.31;100.00;101195.94;4940816;28;20189;-48
2023/09/29 10:36:54;;;;;;;14.88;7.22;;;;;;;18.35;100.00;101184.88;4944681;28;20182;-48
2023/09/29 10:39:27;;;;;;;13.00;6.82;;;;;;;18.45;100.00;101188.72;4941317;28;20210;-47
2023/09/29 10:42:15;;;;;;;14.18;6.50;;;;;;;18.62;100.00;101191.19;4939498;28;20218;-47
2023/09/29 10:44:52;;;;;;;13.55;6.75;;;;;;;18.60;100.00;101189.56;4943254;28;20186;-47
2023/09/29 10:47:36;;;;;;;9.02;5.65;;;;;;;18.67;100.00;101188.16;4943545;28;20233;-47
2023/09/29 10:50:03;;;;;;;11.48;5.65;;;;;;;18.62;100.00;101177.63;4940786;28;20712;-47
2023/09/29 10:52:30;;;;;;;14.60;6.18;;;;;;;18.68;100.00;101176.34;4942127;28;20207;-47
2023/09/29 10:54:59;;;;;;;13.65;5.82;;;;;;;18.68;100.00;101169.06;4941718;28;20670;-47
2023/09/29 10:57:32;;;;;;;11.80;5.72;;;;;;;18.82;100.00;101168.19;4941124;28;20187;-47
2023/09/29 11:00:00;;;;;;;9.38;5.15;;;;;;;18.83;100.00;101169.94;4942722;28;20672;-49
2023/09/29 11:02:36;;;;;;;10.25;5.20;;;;;;;19.05;100.00;101174.78;4941899;28;20218;-47
2023/09/29 11:05:06;;;;;;;12.98;5.47;;;;;;;19.04;100.00;101183.00;4944461;28;20193;-48
2023/09/29 11:07:48;;;;;;;12.45;5.50;;;;;;;19.06;100.00;101170.19;4939890;28;20211;-47